Flugplatz Berlin-Schönefeld International

Bericht für EDDB

vom 18.01. um 16:20 UTC

Wind 10 kt aus 220°

Sichtweite 8000 m

schwacher Schnee

schwacher Regen

aufgelockert bewölkt in 900 ft

bedeckt in 1400 ft

Temperatur 1.0°C

Taupunkt 1.0°C

Luftfeuchtigkeit 100%

Luftdruck 1017 hPa

EDDB 181620Z 22010KT 8000 -SNRA SCT009 OVC014 01/01 Q1017 R07L/1/0195 TEMPO 4000 -RASN

Prognose für EDDB

vom 18.01. um 14:54 UTC

Zwischen 14:00 UTC und 16:00 UTC

Wind 5 kt aus 210°

Sichtweite 5000 m

feuchter Dunst

aufgelockert bewölkt in 800 ft

aufgebrochene Bewölkung in 1500 ft


Zwischen 14:00 UTC und 18:00 UTC zeitweise

Sichtweite 2000 m

schwacher Schnee

schwacher Regen

bedeckt in 400 ft


Zwischen 16:00 und 18:00 UTC übergehend zu

Wind 11 kt aus 220°

Sichtweite 5000 m

feuchter Dunst

aufgelockert bewölkt in 800 ft

aufgebrochene Bewölkung in 1500 ft


Am 19.01. zwischen 07:00 UTC und 12:00 UTC zeitweise mit einer Wahrscheinlichkeit von 40%

Wind 15 kt aus 210° in Böen 25 kt

Sichtweite 4500 m

Regen

aufgebrochene Bewölkung in 800 ft

TAF AMD EDDB 181454Z 1814/1912 21005KT 5000 BR SCT008 BKN015 TEMPO 1814/1818 2000 -SNRA OVC004 BECMG 1816/1818 22011KT PROB40 TEMPO 1907/1912 21015G25KT 4500 RA BKN008
Impressum